createdAt,value
2023-04-27T00:01:37.632Z,2.57
2023-04-27T00:04:06.888Z,2.70
2023-04-27T00:06:35.455Z,2.80
2023-04-27T00:09:04.588Z,2.50
2023-04-27T00:11:34.391Z,2.90
2023-04-27T00:14:02.739Z,2.80
2023-04-27T00:16:31.122Z,3.00
2023-04-27T00:18:59.465Z,3.20
2023-04-27T00:21:27.985Z,3.13
2023-04-27T00:23:56.509Z,2.93
2023-04-27T00:26:24.877Z,3.00
2023-04-27T00:28:54.645Z,2.80
2023-04-27T00:31:23.023Z,3.13
2023-04-27T00:33:51.432Z,2.57
2023-04-27T00:36:19.707Z,2.90
2023-04-27T00:38:48.005Z,2.60
2023-04-27T00:41:16.336Z,3.00
2023-04-27T00:43:45.691Z,2.70
2023-04-27T00:46:16.292Z,2.90
2023-04-27T00:48:44.782Z,2.53
2023-04-27T00:51:13.191Z,3.00
2023-04-27T00:53:41.721Z,2.70
2023-04-27T00:56:10.107Z,3.00
2023-04-27T00:58:38.516Z,2.67
2023-04-27T01:01:06.868Z,2.77
2023-04-27T01:03:36.766Z,2.90
2023-04-27T01:06:05.361Z,3.50
2023-04-27T01:08:33.690Z,3.10
2023-04-27T01:11:02.005Z,3.53
2023-04-27T01:13:30.398Z,2.93
2023-04-27T01:15:58.709Z,3.13
2023-04-27T01:18:27.130Z,2.70
2023-04-27T01:20:57.028Z,2.87
2023-04-27T01:23:26.784Z,2.40
2023-04-27T01:25:55.135Z,3.23
2023-04-27T01:28:23.488Z,3.43
2023-04-27T01:30:51.934Z,3.07
2023-04-27T01:33:20.405Z,3.27
2023-04-27T01:35:48.742Z,3.40
2023-04-27T01:38:17.405Z,2.80
2023-04-27T01:40:47.097Z,2.20
2023-04-27T01:43:15.454Z,3.47
2023-04-27T01:45:43.771Z,3.47
2023-04-27T01:48:12.103Z,3.93
2023-04-27T01:50:40.497Z,2.57
2023-04-27T01:55:56.283Z,2.43
2023-04-27T01:58:25.138Z,3.47
2023-04-27T02:00:53.677Z,3.00
2023-04-27T02:03:22.298Z,3.80
2023-04-27T02:05:50.922Z,3.40
2023-04-27T02:08:19.309Z,3.60
2023-04-27T02:10:47.679Z,3.37
2023-04-27T02:13:17.436Z,3.40
2023-04-27T02:18:32.473Z,3.27
2023-04-27T02:21:01.119Z,3.37
2023-04-27T02:23:29.477Z,3.23
2023-04-27T02:25:57.819Z,3.13
2023-04-27T02:29:02.664Z,3.90
2023-04-27T02:32:07.237Z,2.20
2023-04-27T02:52:03.056Z,3.40
2023-04-27T02:58:30.023Z,2.87
2023-04-27T03:01:34.687Z,2.80
2023-04-27T03:04:39.640Z,2.77
2023-04-27T03:07:44.761Z,3.47
2023-04-27T03:10:49.377Z,3.27
2023-04-27T03:20:11.254Z,3.37
2023-04-27T03:22:39.557Z,3.40
2023-04-27T03:25:08.398Z,3.50
2023-04-27T03:27:36.737Z,3.30
2023-04-27T03:30:05.121Z,2.97
2023-04-27T03:32:33.523Z,5.00
2023-04-27T03:35:03.320Z,3.53
2023-04-27T03:37:34.277Z,2.73
2023-04-27T03:40:02.628Z,3.33
2023-04-27T03:42:30.959Z,4.23
2023-04-27T03:44:59.320Z,3.70
2023-04-27T03:47:27.673Z,3.10
2023-04-27T03:49:56.420Z,3.30
2023-04-27T03:52:24.755Z,3.60
2023-04-27T03:54:54.441Z,5.00
2023-04-27T03:57:22.767Z,2.40
2023-04-27T03:59:51.939Z,2.93
2023-04-27T04:02:22.144Z,4.23
2023-04-27T04:04:50.859Z,2.60
2023-04-27T04:07:19.660Z,3.30
2023-04-27T04:09:48.022Z,2.83
2023-04-27T04:12:17.721Z,2.80
2023-04-27T04:14:48.897Z,2.20
2023-04-27T04:17:17.252Z,2.13
2023-04-27T04:19:45.638Z,4.00
2023-04-27T04:22:13.985Z,2.60
2023-04-27T04:24:42.298Z,3.57
2023-04-27T04:27:10.717Z,3.43
2023-04-27T04:29:40.680Z,3.03
2023-04-27T04:32:09.515Z,3.57
2023-04-27T04:34:37.830Z,3.23
2023-04-27T04:37:06.302Z,3.47
2023-04-27T04:39:34.656Z,3.20
2023-04-27T04:42:04.062Z,3.20
2023-04-27T04:44:32.484Z,3.73
2023-04-27T04:47:02.199Z,3.47
2023-04-27T04:49:30.604Z,3.27
2023-04-27T04:51:58.975Z,3.17
2023-04-27T04:54:27.756Z,3.80
2023-04-27T04:56:56.106Z,3.73
2023-04-27T04:59:24.438Z,4.17
2023-04-27T05:01:55.554Z,3.50
2023-04-27T05:04:25.493Z,4.30
2023-04-27T05:06:53.989Z,3.30
2023-04-27T05:09:22.351Z,4.37
2023-04-27T05:11:50.688Z,4.07
2023-04-27T05:14:19.065Z,3.60
2023-04-27T05:16:49.100Z,3.53
2023-04-27T05:19:18.476Z,3.73
2023-04-27T05:21:48.436Z,3.97
2023-04-27T05:24:16.818Z,3.87
2023-04-27T05:26:45.462Z,6.70
2023-04-27T05:29:14.067Z,3.60
2023-04-27T05:31:42.648Z,4.33
2023-04-27T05:34:11.131Z,5.57
2023-04-27T05:36:39.449Z,3.53
2023-04-27T05:39:09.196Z,4.23
2023-04-27T05:41:37.546Z,3.73
2023-04-27T05:44:06.024Z,5.57
2023-04-27T05:46:35.385Z,3.30
2023-04-27T05:49:05.689Z,5.17
2023-04-27T05:51:34.338Z,4.93
2023-04-27T05:54:02.831Z,4.10
2023-04-27T05:56:32.741Z,4.47
2023-04-27T05:59:02.677Z,3.37
2023-04-27T06:01:31.649Z,4.80
2023-04-27T06:04:01.882Z,4.10
2023-04-27T06:06:33.387Z,4.00
2023-04-27T06:09:01.913Z,4.77
2023-04-27T06:11:30.387Z,5.20
2023-04-27T06:14:00.294Z,4.80
2023-04-27T06:16:28.991Z,4.73
2023-04-27T06:18:57.538Z,5.17
2023-04-27T06:21:26.609Z,5.27
2023-04-27T06:23:55.052Z,4.60
2023-04-27T06:26:23.479Z,5.10
2023-04-27T06:28:51.919Z,4.30
2023-04-27T06:31:21.827Z,4.20
2023-04-27T06:33:50.360Z,4.40
2023-04-27T06:36:19.581Z,5.00
2023-04-27T06:38:48.033Z,4.17
2023-04-27T06:41:16.480Z,5.20
2023-04-27T06:43:44.864Z,4.57
2023-04-27T06:46:13.366Z,4.07
2023-04-27T06:48:43.358Z,4.40
2023-04-27T06:51:12.832Z,4.23
2023-04-27T06:53:41.319Z,4.40
2023-04-27T06:56:12.796Z,4.10
2023-04-27T06:58:41.308Z,4.17
2023-04-27T07:01:09.781Z,4.70
2023-04-27T07:03:38.489Z,4.17
2023-04-27T07:06:08.540Z,6.40
2023-04-27T07:08:38.075Z,5.53
2023-04-27T07:11:06.606Z,6.13
2023-04-27T07:13:35.315Z,4.60
2023-04-27T07:16:03.811Z,4.27
2023-04-27T07:18:32.297Z,4.60
2023-04-27T07:21:00.763Z,4.70
2023-04-27T07:23:30.583Z,3.73
2023-04-27T07:25:59.815Z,3.90
2023-04-27T07:28:29.988Z,4.20
2023-04-27T07:30:58.972Z,4.00
2023-04-27T07:33:27.846Z,4.47
2023-04-27T07:35:56.894Z,3.90
2023-04-27T07:38:25.578Z,3.23
2023-04-27T07:40:55.531Z,3.50
2023-04-27T07:43:25.783Z,3.00
2023-04-27T07:45:54.574Z,3.60
2023-04-27T07:48:23.146Z,4.30
2023-04-27T07:50:51.818Z,2.93
2023-04-27T07:53:20.271Z,3.17
2023-04-27T07:55:48.748Z,4.13
2023-04-27T07:58:19.910Z,3.67
2023-04-27T08:00:48.397Z,3.80
2023-04-27T08:03:17.344Z,3.77
2023-04-27T08:05:46.326Z,3.00
2023-04-27T08:08:15.163Z,3.50
2023-04-27T08:10:43.623Z,4.40
2023-04-27T08:13:12.100Z,3.47
2023-04-27T08:15:42.114Z,4.33
2023-04-27T08:18:10.640Z,2.87
2023-04-27T08:20:39.135Z,3.30
2023-04-27T08:23:07.645Z,2.70
2023-04-27T08:25:37.729Z,4.50
2023-04-27T08:28:06.173Z,4.07
2023-04-27T08:30:36.248Z,3.40
2023-04-27T08:33:08.880Z,3.00
2023-04-27T08:35:37.498Z,2.67
2023-04-27T08:38:06.036Z,3.43
2023-04-27T08:40:34.530Z,3.33
2023-04-27T08:43:03.054Z,2.50
2023-04-27T08:45:31.573Z,2.77
2023-04-27T08:48:00.239Z,2.73
2023-04-27T08:50:31.504Z,3.30
2023-04-27T08:53:00.012Z,3.67
2023-04-27T08:55:28.443Z,3.73
2023-04-27T08:57:57.337Z,2.63
2023-04-27T09:00:26.472Z,3.10
2023-04-27T09:02:55.278Z,2.97
2023-04-27T09:05:24.724Z,2.73
2023-04-27T09:08:01.423Z,2.43
2023-04-27T09:10:30.409Z,2.50
2023-04-27T09:13:00.242Z,2.23
2023-04-27T09:15:29.470Z,2.70
2023-04-27T09:17:58.181Z,2.93
2023-04-27T09:20:28.779Z,2.53
2023-04-27T09:22:58.737Z,3.57
2023-04-27T09:25:29.945Z,2.67
2023-04-27T09:27:59.139Z,3.33
2023-04-27T09:30:27.665Z,2.50
2023-04-27T09:32:57.257Z,3.07
2023-04-27T09:35:26.892Z,2.80
2023-04-27T09:37:55.810Z,2.37
2023-04-27T09:40:26.746Z,2.90
2023-04-27T09:42:57.540Z,3.00
2023-04-27T09:45:26.126Z,2.73
2023-04-27T09:47:54.720Z,2.93
2023-04-27T09:50:23.494Z,2.90
2023-04-27T09:52:52.129Z,2.77
2023-04-27T09:55:26.423Z,3.00
2023-04-27T09:58:01.204Z,3.23
2023-04-27T10:00:40.926Z,3.30
2023-04-27T10:03:17.444Z,3.40
2023-04-27T10:05:54.766Z,2.73
2023-04-27T10:08:23.386Z,3.40
2023-04-27T10:10:52.065Z,3.30
2023-04-27T10:13:26.262Z,2.80
2023-04-27T10:15:55.512Z,2.33
2023-04-27T10:18:27.986Z,2.80
2023-04-27T10:20:56.480Z,2.33
2023-04-27T10:23:25.541Z,2.83
2023-04-27T10:25:55.230Z,3.03
2023-04-27T10:28:25.065Z,2.50
2023-04-27T10:30:53.559Z,2.43
2023-04-27T10:33:24.155Z,3.13
2023-04-27T10:35:56.991Z,2.60
2023-04-27T10:38:29.533Z,3.27
2023-04-27T10:40:58.545Z,2.40
2023-04-27T10:43:28.810Z,2.90
2023-04-27T10:45:57.668Z,2.20
2023-04-27T10:48:26.113Z,2.60
2023-04-27T10:50:54.601Z,2.07
2023-04-27T10:53:23.061Z,3.23
2023-04-27T10:55:56.617Z,3.10
2023-04-27T10:58:31.905Z,1.83
2023-04-27T11:01:11.704Z,1.90
2023-04-27T11:03:40.319Z,2.30
2023-04-27T11:06:08.953Z,2.27
2023-04-27T11:08:45.654Z,2.30
2023-04-27T11:11:16.927Z,2.13
2023-04-27T11:13:46.510Z,2.13
2023-04-27T11:16:17.195Z,2.13
2023-04-27T11:18:45.686Z,2.00
2023-04-27T11:21:14.994Z,1.80
2023-04-27T11:23:44.145Z,1.60
2023-04-27T11:26:14.415Z,1.77
2023-04-27T11:28:42.886Z,2.30
2023-04-27T11:31:12.495Z,2.63
2023-04-27T11:33:49.706Z,2.13
2023-04-27T11:36:18.505Z,2.03
2023-04-27T11:38:47.257Z,2.80
2023-04-27T11:41:16.183Z,3.20
2023-04-27T11:43:46.316Z,2.13
2023-04-27T11:46:15.036Z,1.70
2023-04-27T11:48:44.982Z,1.93
2023-04-27T11:51:13.648Z,1.87
2023-04-27T11:53:42.556Z,1.67
2023-04-27T11:56:12.336Z,1.83
2023-04-27T11:58:42.557Z,1.60
2023-04-27T12:01:13.019Z,1.80
2023-04-27T12:03:41.987Z,1.70
2023-04-27T12:06:31.867Z,1.73
2023-04-27T12:09:01.022Z,1.83
2023-04-27T12:11:29.792Z,2.53
2023-04-27T12:13:58.793Z,3.27
2023-04-27T12:16:27.538Z,1.90
2023-04-27T12:18:56.072Z,1.70
2023-04-27T12:21:25.907Z,1.70
2023-04-27T12:23:54.387Z,2.00
2023-04-27T12:26:22.944Z,2.00
2023-04-27T12:28:51.364Z,1.77
2023-04-27T12:31:26.916Z,2.10
2023-04-27T12:33:56.272Z,2.47
2023-04-27T12:36:27.295Z,1.97
2023-04-27T12:38:56.076Z,2.53
2023-04-27T12:41:25.171Z,2.27
2023-04-27T12:43:53.572Z,2.13
2023-04-27T12:46:21.968Z,2.20
2023-04-27T12:48:50.859Z,1.77
2023-04-27T12:51:19.312Z,1.30
2023-04-27T12:53:49.156Z,2.30
2023-04-27T12:56:18.104Z,2.23
2023-04-27T12:58:46.915Z,2.07
2023-04-27T13:01:15.710Z,2.40
2023-04-27T13:03:44.494Z,2.23
2023-04-27T13:06:13.169Z,1.80
2023-04-27T13:08:42.176Z,1.73
2023-04-27T13:11:12.128Z,1.97
2023-04-27T13:13:41.134Z,1.87
2023-04-27T13:16:10.218Z,1.70
2023-04-27T13:18:38.751Z,2.80
2023-04-27T13:21:07.281Z,2.40
2023-04-27T13:23:35.999Z,1.63
2023-04-27T13:26:04.705Z,1.90
2023-04-27T13:28:34.635Z,1.83
2023-04-27T13:31:04.250Z,1.50
2023-04-27T13:33:33.894Z,1.67
2023-04-27T13:36:03.959Z,1.60
2023-04-27T13:38:32.376Z,1.60
2023-04-27T13:41:00.849Z,1.90
2023-04-27T13:43:29.312Z,1.57
2023-04-27T13:46:01.168Z,1.70
2023-04-27T13:48:30.213Z,1.90
2023-04-27T13:50:59.060Z,2.30
2023-04-27T13:53:27.835Z,2.27
2023-04-27T13:55:56.521Z,2.30
2023-04-27T13:58:26.202Z,1.60
2023-04-27T14:00:54.982Z,1.83
2023-04-27T14:03:25.141Z,2.00
2023-04-27T14:05:53.803Z,2.60
2023-04-27T14:08:22.542Z,1.70
2023-04-27T14:10:51.099Z,1.57
2023-04-27T14:13:20.392Z,2.50
2023-04-27T14:15:48.894Z,1.73
2023-04-27T14:18:17.397Z,1.90
2023-04-27T14:20:47.288Z,2.17
2023-04-27T14:23:15.959Z,2.23
2023-04-27T14:25:44.439Z,1.73
2023-04-27T14:28:14.772Z,2.07
2023-04-27T14:30:43.223Z,1.60
2023-04-27T14:33:11.729Z,1.97
2023-04-27T14:35:40.277Z,1.60
2023-04-27T14:38:10.114Z,1.40
2023-04-27T14:40:38.624Z,1.60
2023-04-27T14:43:07.205Z,1.47
2023-04-27T14:45:47.934Z,1.90
2023-04-27T14:48:20.016Z,1.73
2023-04-27T14:50:48.516Z,2.00
2023-04-27T14:53:18.330Z,2.10
2023-04-27T14:55:46.818Z,1.57
2023-04-27T14:58:15.482Z,2.10
2023-04-27T15:00:44.100Z,1.47
2023-04-27T15:03:12.852Z,1.87
2023-04-27T15:05:41.393Z,1.30
2023-04-27T15:08:09.926Z,1.60
2023-04-27T15:10:39.818Z,1.50
2023-04-27T15:13:08.339Z,1.40
2023-04-27T15:15:36.890Z,1.13
2023-04-27T15:18:05.667Z,1.65
2023-04-27T15:20:34.191Z,1.50
2023-04-27T15:23:02.682Z,1.40
2023-04-27T15:25:31.250Z,1.60
2023-04-27T15:28:03.243Z,1.90
2023-04-27T15:30:31.716Z,1.73
2023-04-27T15:33:00.221Z,1.57
2023-04-27T15:35:28.751Z,1.77
2023-04-27T15:37:57.335Z,1.80
2023-04-27T15:40:25.924Z,1.60
2023-04-27T15:42:54.418Z,1.57
2023-04-27T15:45:24.508Z,1.40
2023-04-27T15:47:53.135Z,1.60
2023-04-27T15:50:21.606Z,1.20
2023-04-27T15:52:50.064Z,1.20
2023-04-27T15:55:18.874Z,1.17
2023-04-27T15:57:47.355Z,0.93
2023-04-27T16:00:17.022Z,1.40
2023-04-27T16:02:46.969Z,1.40
2023-04-27T16:05:16.578Z,1.83
2023-04-27T16:07:46.569Z,0.93
2023-04-27T16:10:15.057Z,1.07
2023-04-27T16:12:43.557Z,1.30
2023-04-27T16:15:12.342Z,1.40
2023-04-27T16:17:41.135Z,1.70
2023-04-27T16:20:11.374Z,1.20
2023-04-27T16:22:39.991Z,1.23
2023-04-27T16:25:10.780Z,1.60
2023-04-27T16:27:39.655Z,1.33
2023-04-27T16:30:08.675Z,1.50
2023-04-27T16:32:37.207Z,1.57
2023-04-27T16:35:06.210Z,1.47
2023-04-27T16:37:36.112Z,1.13
2023-04-27T16:40:06.973Z,1.40
2023-04-27T16:42:35.729Z,1.60
2023-04-27T16:45:04.190Z,1.47
2023-04-27T16:47:32.803Z,1.60
2023-04-27T16:50:01.572Z,1.50
2023-04-27T16:52:30.120Z,1.30
2023-04-27T16:54:59.950Z,1.40
2023-04-27T16:57:28.722Z,3.50
2023-04-27T16:59:57.508Z,1.70
2023-04-27T17:02:26.155Z,1.60
2023-04-27T17:04:54.748Z,1.57
2023-04-27T17:07:23.347Z,1.70
2023-04-27T17:09:51.770Z,1.47
2023-04-27T17:12:21.685Z,1.40
2023-04-27T17:14:50.221Z,1.40
2023-04-27T17:17:18.795Z,1.33
2023-04-27T17:19:47.325Z,1.50
2023-04-27T17:22:16.616Z,1.33
2023-04-27T17:24:45.077Z,1.30
2023-04-27T17:27:13.603Z,10.00
2023-04-27T17:29:43.484Z,12.57
2023-04-27T17:32:11.941Z,9.73
2023-04-27T17:34:42.510Z,4.50
2023-04-27T17:37:11.678Z,5.13
2023-04-27T17:39:40.123Z,5.77
2023-04-27T17:42:12.322Z,5.20
2023-04-27T17:44:42.331Z,5.07
2023-04-27T17:47:12.356Z,3.00
2023-04-27T17:49:40.998Z,1.80
2023-04-27T17:52:09.841Z,1.20
2023-04-27T17:54:48.753Z,1.77
2023-04-27T17:57:17.287Z,1.73
2023-04-27T17:59:46.349Z,1.40
2023-04-27T18:02:16.409Z,1.77
2023-04-27T18:04:45.042Z,1.40
2023-04-27T18:07:13.540Z,2.50
2023-04-27T18:09:42.091Z,2.20
2023-04-27T18:12:11.264Z,1.70
2023-04-27T18:14:39.911Z,2.20
2023-04-27T18:17:08.634Z,1.70
2023-04-27T18:19:38.453Z,1.90
2023-04-27T18:22:06.925Z,1.47
2023-04-27T18:24:35.509Z,2.00
2023-04-27T18:27:04.162Z,2.20
2023-04-27T18:29:33.651Z,6.33
2023-04-27T18:32:05.607Z,1.80
2023-04-27T18:34:34.272Z,2.07
2023-04-27T18:37:04.126Z,1.73
2023-04-27T18:39:32.640Z,1.80
2023-04-27T18:42:01.110Z,1.47
2023-04-27T18:44:29.734Z,1.67
2023-04-27T18:46:58.954Z,1.80
2023-04-27T18:49:27.498Z,1.90
2023-04-27T18:51:56.024Z,1.57
2023-04-27T18:54:26.038Z,1.80
2023-04-27T18:56:54.675Z,1.87
2023-04-27T18:59:23.423Z,7.40
2023-04-27T19:01:52.156Z,7.70
2023-04-27T19:04:20.817Z,30.50
2023-04-27T19:06:50.049Z,20.07
2023-04-27T19:09:19.276Z,7.93
2023-04-27T19:11:56.110Z,16.20
2023-04-27T19:14:31.207Z,6.60
2023-04-27T19:16:59.721Z,10.73
2023-04-27T19:19:28.277Z,7.77
2023-04-27T19:21:58.336Z,3.10
2023-04-27T19:24:26.922Z,2.60
2023-04-27T19:26:56.908Z,2.30
2023-04-27T19:29:26.532Z,1.97
2023-04-27T19:31:55.011Z,1.70
2023-04-27T19:34:23.477Z,2.43
2023-04-27T19:36:51.894Z,1.53
2023-04-27T19:39:21.592Z,2.83
2023-04-27T19:41:50.102Z,5.10
2023-04-27T19:44:19.973Z,4.73
2023-04-27T19:46:48.485Z,14.70
2023-04-27T19:49:16.944Z,9.37
2023-04-27T19:51:45.606Z,4.90
2023-04-27T19:54:14.550Z,4.37
2023-04-27T19:56:43.388Z,4.50
2023-04-27T19:59:12.286Z,14.40
2023-04-27T20:01:42.268Z,5.10
2023-04-27T20:08:09.615Z,2.33
2023-04-27T20:11:14.358Z,2.20
2023-04-27T20:14:19.456Z,2.17
2023-04-27T20:26:04.013Z,2.63
2023-04-27T20:29:08.852Z,2.07
2023-04-27T20:35:02.515Z,1.90
2023-04-27T20:37:32.221Z,2.70
2023-04-27T20:40:00.868Z,2.33
2023-04-27T20:42:29.525Z,2.33
2023-04-27T20:44:57.552Z,3.00
2023-04-27T20:47:25.781Z,2.87
2023-04-27T20:49:54.324Z,2.67
2023-04-27T20:52:23.620Z,3.50
2023-04-27T20:54:54.448Z,2.63
2023-04-27T20:57:22.540Z,2.67
2023-04-27T20:59:50.466Z,2.23
2023-04-27T21:02:18.612Z,2.73
2023-04-27T21:04:46.809Z,2.73
2023-04-27T21:07:14.813Z,3.20
2023-04-27T21:10:37.795Z,3.17
2023-04-27T21:17:41.278Z,2.80
2023-04-27T21:21:04.183Z,3.10
2023-04-27T21:24:27.295Z,3.33
2023-04-27T21:31:31.846Z,3.40
2023-04-27T21:34:55.215Z,3.50
2023-04-27T21:45:39.765Z,2.50
2023-04-27T21:49:03.168Z,3.00
2023-04-27T21:51:34.537Z,2.97
2023-04-27T21:54:38.618Z,3.30
2023-04-27T21:57:25.196Z,3.57
2023-04-27T22:00:14.433Z,3.60
2023-04-27T22:03:00.245Z,3.00
2023-04-27T22:05:45.985Z,2.73
2023-04-27T22:08:35.030Z,3.37
2023-04-27T22:11:39.507Z,3.60
2023-04-27T22:14:26.135Z,3.83
2023-04-27T22:16:54.280Z,2.90
2023-04-27T22:19:59.727Z,3.53
2023-04-27T22:22:27.846Z,3.00
2023-04-27T22:24:57.237Z,2.13
2023-04-27T22:27:30.061Z,3.57
2023-04-27T22:30:03.358Z,2.87
2023-04-27T22:32:32.114Z,3.10
2023-04-27T22:35:00.772Z,3.60
2023-04-27T22:37:29.736Z,3.00
2023-04-27T22:39:59.211Z,3.40
2023-04-27T22:42:27.287Z,3.67
2023-04-27T22:44:55.305Z,3.30
2023-04-27T22:47:23.371Z,3.60
2023-04-27T22:49:52.332Z,3.73
2023-04-27T22:52:20.374Z,3.43
2023-04-27T22:54:48.473Z,3.53
2023-04-27T22:57:17.963Z,3.20
2023-04-27T22:59:49.507Z,2.77
2023-04-27T23:02:17.689Z,3.30
2023-04-27T23:04:46.015Z,3.83
2023-04-27T23:07:17.116Z,3.40
2023-04-27T23:09:45.790Z,3.67
2023-04-27T23:12:14.250Z,3.60
2023-04-27T23:14:43.705Z,3.23
2023-04-27T23:17:11.748Z,2.40
2023-04-27T23:19:40.589Z,3.40
2023-04-27T23:22:08.648Z,4.00
2023-04-27T23:24:36.692Z,3.23
2023-04-27T23:27:04.873Z,2.73
2023-04-27T23:29:33.153Z,3.57
2023-04-27T23:32:04.776Z,3.10
2023-04-27T23:34:32.903Z,3.43
2023-04-27T23:37:01.001Z,2.90
2023-04-27T23:39:29.159Z,3.63
2023-04-27T23:41:58.123Z,4.27
2023-04-27T23:44:26.259Z,3.47
2023-04-27T23:46:54.395Z,3.73
2023-04-27T23:49:23.936Z,4.20
2023-04-27T23:51:53.593Z,3.10
2023-04-27T23:54:21.659Z,4.30
2023-04-27T23:56:51.350Z,4.80
2023-04-27T23:59:19.560Z,5.00
